Time;durP1;ratioP1;P1;durP2;ratioP2;P2;SDS_P1;SDS_P2;PMS_P1;PMS_P2;Temp;Humidity;BMP_temperature;BMP_pressure;BME280_temperature;BME280_humidity;BME280_pressure;Samples;Min_cycle;Max_cycle;Signal;HPM_P1;HPM_P2
2022/01/09 00:02:01;;;;;;;3.50;3.20;;;2.80;99.90;;;;;;5130883;27;20243;-56
2022/01/09 00:04:29;;;;;;;3.43;3.17;;;2.80;99.90;;;;;;5129794;27;20322;-55
2022/01/09 00:06:57;;;;;;;3.10;2.90;;;2.80;99.90;;;;;;5118869;27;20211;-56
2022/01/09 00:09:28;;;;;;;3.50;3.20;;;2.80;99.90;;;;;;5091582;28;20207;-55
2022/01/09 00:11:56;;;;;;;3.43;3.13;;;2.80;99.90;;;;;;5110429;28;20660;-55
2022/01/09 00:14:25;;;;;;;3.57;3.00;;;2.70;99.90;;;;;;5110902;28;20222;-55
2022/01/09 00:16:53;;;;;;;3.40;3.10;;;2.70;99.90;;;;;;5110680;28;20246;-55
2022/01/09 00:19:21;;;;;;;3.10;2.90;;;2.70;99.90;;;;;;5111443;28;20227;-55
2022/01/09 00:21:50;;;;;;;3.50;3.20;;;2.70;99.90;;;;;;5110945;28;20244;-57
2022/01/09 00:24:18;;;;;;;3.77;3.43;;;2.60;99.90;;;;;;5110941;28;20237;-54
2022/01/09 00:26:46;;;;;;;4.20;3.53;;;2.60;99.90;;;;;;5111337;28;20209;-56
2022/01/09 00:29:14;;;;;;;3.90;3.60;;;2.60;99.90;;;;;;5110586;28;20227;-57
2022/01/09 00:31:43;;;;;;;3.87;3.30;;;2.60;99.90;;;;;;5111302;28;20211;-55
2022/01/09 00:34:11;;;;;;;3.73;3.43;;;2.60;99.90;;;;;;5114886;28;20279;-54
2022/01/09 00:36:39;;;;;;;4.03;2.87;;;2.60;99.90;;;;;;5114623;28;20210;-56
2022/01/09 00:39:07;;;;;;;3.53;3.10;;;2.60;99.90;;;;;;5111158;28;20226;-55
2022/01/09 00:41:35;;;;;;;2.90;2.70;;;2.60;99.90;;;;;;5115539;28;20210;-55
2022/01/09 00:44:04;;;;;;;2.80;2.60;;;2.60;99.90;;;;;;5115622;28;20205;-56
2022/01/09 00:46:33;;;;;;;3.10;2.80;;;2.60;99.90;;;;;;5115407;27;20603;-55
2022/01/09 00:49:04;;;;;;;2.70;2.50;;;2.60;99.90;;;;;;5114897;28;20660;-55
2022/01/09 00:51:32;;;;;;;2.40;2.20;;;2.70;99.90;;;;;;5114600;28;20680;-56
2022/01/09 00:54:05;;;;;;;3.37;2.40;;;2.70;99.90;;;;;;5115255;28;20755;-56
2022/01/09 00:56:33;;;;;;;2.70;2.50;;;2.70;99.90;;;;;;5115104;28;20253;-55
2022/01/09 00:59:01;;;;;;;2.47;2.30;;;2.70;99.90;;;;;;5110135;28;20228;-56
2022/01/09 01:01:29;;;;;;;2.60;2.40;;;2.70;99.90;;;;;;5099684;28;20208;-56
2022/01/09 01:03:57;;;;;;;2.77;2.57;;;2.70;99.90;;;;;;5114765;28;20224;-56
2022/01/09 01:06:26;;;;;;;2.90;2.70;;;2.70;99.90;;;;;;5114714;28;20210;-56
2022/01/09 01:08:56;;;;;;;3.60;2.87;;;2.70;99.90;;;;;;5114078;28;20228;-55
2022/01/09 01:11:24;;;;;;;3.10;2.90;;;2.70;99.90;;;;;;5122870;27;20242;-56
2022/01/09 01:13:52;;;;;;;3.20;3.00;;;2.70;99.90;;;;;;5135395;27;20220;-55
2022/01/09 01:16:20;;;;;;;3.40;3.20;;;2.80;99.90;;;;;;5135628;27;20226;-55
2022/01/09 01:18:48;;;;;;;3.00;2.80;;;2.70;99.90;;;;;;5135307;27;20261;-55
2022/01/09 01:21:16;;;;;;;3.50;3.20;;;2.70;99.90;;;;;;5135448;27;20627;-55
2022/01/09 01:23:46;;;;;;;3.83;3.40;;;2.80;99.90;;;;;;5119011;27;20215;-56
2022/01/09 01:26:14;;;;;;;3.53;3.23;;;2.80;99.90;;;;;;5114625;28;20214;-56
2022/01/09 01:28:42;;;;;;;3.70;3.40;;;2.70;99.90;;;;;;5114848;28;20251;-55
2022/01/09 01:31:11;;;;;;;4.13;3.73;;;2.70;99.90;;;;;;5114439;28;20209;-55
2022/01/09 01:33:39;;;;;;;3.57;3.27;;;2.80;99.90;;;;;;5114645;28;20681;-55
2022/01/09 01:36:07;;;;;;;4.17;3.70;;;2.80;99.90;;;;;;5122184;27;20566;-55
2022/01/09 01:38:35;;;;;;;3.60;3.30;;;2.80;99.90;;;;;;5130094;27;20731;-55
2022/01/09 01:41:05;;;;;;;4.00;3.50;;;2.80;99.90;;;;;;5135151;27;20665;-55
2022/01/09 01:43:33;;;;;;;4.00;3.60;;;2.70;99.90;;;;;;5134478;27;20230;-56
2022/01/09 01:46:02;;;;;;;5.30;3.70;;;2.70;99.90;;;;;;5134902;27;20211;-55
2022/01/09 01:48:30;;;;;;;3.30;3.10;;;2.60;99.90;;;;;;5124876;27;20229;-55
2022/01/09 01:50:58;;;;;;;4.37;3.97;;;2.70;99.90;;;;;;5115848;28;20208;-55
2022/01/09 01:53:27;;;;;;;4.30;4.00;;;2.70;99.90;;;;;;5122820;27;20240;-56
2022/01/09 01:55:56;;;;;;;4.03;3.73;;;2.70;99.90;;;;;;5114336;28;20258;-56
2022/01/09 01:58:27;;;;;;;4.40;4.00;;;2.70;99.90;;;;;;5113228;28;20282;-55
2022/01/09 02:00:55;;;;;;;3.83;3.50;;;2.80;99.90;;;;;;5096683;28;20627;-56
2022/01/09 02:03:23;;;;;;;3.90;3.60;;;2.80;99.90;;;;;;5114284;28;20229;-57
2022/01/09 02:05:51;;;;;;;4.90;4.50;;;2.80;99.90;;;;;;5123143;27;20206;-55
2022/01/09 02:08:20;;;;;;;4.63;4.23;;;2.70;99.90;;;;;;5115060;27;20790;-57
2022/01/09 02:10:48;;;;;;;5.30;4.47;;;2.70;99.90;;;;;;5113803;28;20204;-55
2022/01/09 02:13:18;;;;;;;4.77;4.07;;;2.70;99.90;;;;;;5114157;28;20209;-56
2022/01/09 02:15:48;;;;;;;4.40;3.90;;;2.80;99.90;;;;;;5114264;27;20302;-56
2022/01/09 02:18:18;;;;;;;3.83;3.53;;;2.80;99.90;;;;;;5108345;28;20250;-55
2022/01/09 02:20:49;;;;;;;4.10;3.80;;;2.80;99.90;;;;;;5125904;27;20798;-56
2022/01/09 02:23:18;;;;;;;4.30;3.90;;;2.80;99.90;;;;;;5128787;27;20211;-55
2022/01/09 02:25:48;;;;;;;3.70;3.40;;;2.80;99.90;;;;;;5113951;28;20203;-55
2022/01/09 02:28:17;;;;;;;4.00;3.60;;;2.80;99.90;;;;;;5112520;28;20284;-56
2022/01/09 02:30:46;;;;;;;4.57;4.10;;;2.80;99.90;;;;;;5114053;28;20203;-55
2022/01/09 02:33:17;;;;;;;4.17;3.87;;;2.70;99.90;;;;;;5116515;27;20579;-56
2022/01/09 02:35:48;;;;;;;4.17;3.83;;;2.70;99.90;;;;;;5116993;27;20280;-55
2022/01/09 02:38:18;;;;;;;3.73;3.43;;;2.70;99.90;;;;;;5113014;28;20291;-56
2022/01/09 02:40:50;;;;;;;3.80;3.40;;;2.70;99.90;;;;;;5112910;28;20935;-54
2022/01/09 02:43:18;;;;;;;3.30;3.00;;;2.70;99.90;;;;;;5112982;28;20241;-55
2022/01/09 02:45:53;;;;;;;3.70;3.40;;;2.70;99.90;;;;;;5112576;28;20714;-56
2022/01/09 02:48:22;;;;;;;3.10;2.90;;;2.70;99.90;;;;;;5112741;28;20258;-55
2022/01/09 02:51:00;;;;;;;3.10;2.90;;;2.70;99.90;;;;;;5112901;28;20199;-55
2022/01/09 02:53:34;;;;;;;3.40;3.20;;;2.70;99.90;;;;;;5113345;28;20206;-54
2022/01/09 02:56:03;;;;;;;3.87;3.40;;;2.70;99.90;;;;;;5113397;28;20295;-54
2022/01/09 02:58:32;;;;;;;3.30;3.07;;;2.70;99.90;;;;;;5112015;28;20223;-56
2022/01/09 03:01:01;;;;;;;3.57;2.87;;;2.70;99.90;;;;;;5105719;28;20207;-56
2022/01/09 03:03:29;;;;;;;3.70;2.80;;;2.80;99.90;;;;;;5111873;28;20249;-55
2022/01/09 03:05:57;;;;;;;3.27;3.00;;;2.80;99.90;;;;;;5112964;28;20196;-54
2022/01/09 03:08:25;;;;;;;3.27;3.07;;;2.80;99.90;;;;;;5112249;28;20227;-55
2022/01/09 03:10:55;;;;;;;3.17;2.90;;;2.80;99.90;;;;;;5112903;28;20205;-55
2022/01/09 03:13:24;;;;;;;3.70;3.40;;;2.80;99.90;;;;;;5112694;28;20209;-56
2022/01/09 03:15:52;;;;;;;3.77;3.10;;;2.80;99.90;;;;;;5112642;28;20227;-56
2022/01/09 03:18:20;;;;;;;3.00;2.80;;;2.80;99.90;;;;;;5112664;28;20227;-56
2022/01/09 03:20:48;;;;;;;4.10;3.70;;;2.80;99.90;;;;;;5112660;28;20232;-55
2022/01/09 03:23:16;;;;;;;3.30;3.00;;;2.70;99.90;;;;;;5112169;28;20737;-55
2022/01/09 03:25:44;;;;;;;2.77;2.57;;;2.70;99.90;;;;;;5112153;28;20204;-55
2022/01/09 03:28:14;;;;;;;2.97;2.77;;;2.70;99.90;;;;;;5111829;28;20261;-55
2022/01/09 03:30:42;;;;;;;3.00;2.80;;;2.70;99.90;;;;;;5112514;28;20260;-55
2022/01/09 03:33:10;;;;;;;2.83;2.63;;;2.70;99.90;;;;;;5114226;27;20225;-55
2022/01/09 03:35:39;;;;;;;2.97;2.77;;;2.70;99.90;;;;;;5108096;27;20358;-56
2022/01/09 03:38:07;;;;;;;3.20;2.90;;;2.70;99.90;;;;;;5091171;28;20592;-55
2022/01/09 03:40:35;;;;;;;2.70;2.50;;;2.80;99.90;;;;;;5105705;28;20741;-55
2022/01/09 03:43:03;;;;;;;3.30;3.00;;;2.80;99.90;;;;;;5111829;28;20265;-56
2022/01/09 03:45:33;;;;;;;3.40;2.97;;;2.80;99.90;;;;;;5111985;28;20668;-55
2022/01/09 03:48:01;;;;;;;3.20;3.00;;;2.80;99.90;;;;;;5111919;28;20276;-56
2022/01/09 03:50:29;;;;;;;3.00;2.80;;;2.80;99.90;;;;;;5112115;28;20577;-57
2022/01/09 03:52:57;;;;;;;3.17;2.97;;;2.90;99.90;;;;;;5112435;28;20209;-56
2022/01/09 03:55:27;;;;;;;2.97;2.77;;;2.80;99.90;;;;;;5111628;28;20727;-56
2022/01/09 03:57:55;;;;;;;3.27;3.00;;;2.80;99.90;;;;;;5110641;28;20655;-55
2022/01/09 04:00:25;;;;;;;2.90;2.70;;;2.90;99.90;;;;;;5111352;28;20203;-56
2022/01/09 04:02:54;;;;;;;2.73;2.53;;;2.80;99.90;;;;;;5112086;28;20263;-56
2022/01/09 04:05:23;;;;;;;3.50;3.20;;;2.90;99.90;;;;;;5111363;28;20295;-56
2022/01/09 04:07:51;;;;;;;3.00;2.63;;;2.80;99.90;;;;;;5111839;28;20573;-56
2022/01/09 04:10:41;;;;;;;4.23;2.93;;;2.90;99.90;;;;;;5111768;28;20204;-56
2022/01/09 04:13:12;;;;;;;2.80;2.60;;;2.90;99.90;;;;;;5111546;28;20232;-55
2022/01/09 04:15:45;;;;;;;3.17;2.87;;;2.90;99.90;;;;;;5111459;28;20264;-55
2022/01/09 04:18:16;;;;;;;3.17;2.87;;;2.90;99.90;;;;;;5111425;28;20232;-55
2022/01/09 04:20:44;;;;;;;3.10;2.90;;;3.00;99.90;;;;;;5111582;28;20234;-56
2022/01/09 04:23:13;;;;;;;2.67;2.57;;;2.90;99.90;;;;;;5111258;28;20215;-56
2022/01/09 04:25:44;;;;;;;3.20;3.00;;;2.90;99.90;;;;;;5111682;28;20199;-55
2022/01/09 04:28:12;;;;;;;2.87;2.63;;;2.90;99.90;;;;;;5111289;28;20223;-55
2022/01/09 04:30:41;;;;;;;3.63;3.33;;;2.90;99.90;;;;;;5111562;28;20579;-56
2022/01/09 04:33:10;;;;;;;3.17;2.97;;;2.90;99.90;;;;;;5113509;28;20210;-55
2022/01/09 04:35:41;;;;;;;3.83;3.53;;;2.90;99.90;;;;;;5123170;27;20231;-55
2022/01/09 04:38:09;;;;;;;3.10;2.90;;;2.90;99.90;;;;;;5110166;28;20256;-55
2022/01/09 04:40:37;;;;;;;3.50;3.17;;;3.00;99.90;;;;;;5097223;28;20196;-55
2022/01/09 04:43:08;;;;;;;3.73;3.43;;;3.00;99.90;;;;;;5091110;28;20271;-55
2022/01/09 04:45:36;;;;;;;3.50;3.20;;;2.90;99.90;;;;;;5090680;28;20188;-55
2022/01/09 04:48:08;;;;;;;3.57;3.27;;;2.90;99.90;;;;;;5094076;28;20284;-56
2022/01/09 04:50:37;;;;;;;3.07;2.70;;;2.90;99.90;;;;;;5111629;28;20205;-56
2022/01/09 04:53:09;;;;;;;3.60;3.30;;;2.90;99.90;;;;;;5110875;28;20666;-55
2022/01/09 04:55:39;;;;;;;2.90;2.70;;;2.90;99.90;;;;;;5111441;28;20192;-56
2022/01/09 04:58:08;;;;;;;2.80;2.60;;;2.90;99.90;;;;;;5109576;28;20261;-55
2022/01/09 05:00:37;;;;;;;2.50;2.37;;;2.90;99.90;;;;;;5093696;28;20675;-55
2022/01/09 05:03:05;;;;;;;2.93;2.73;;;2.90;99.90;;;;;;5090920;28;20232;-56
2022/01/09 05:05:33;;;;;;;2.67;2.47;;;2.90;99.90;;;;;;5091134;28;20208;-55
2022/01/09 05:08:01;;;;;;;2.77;2.57;;;2.90;99.90;;;;;;5106155;28;20245;-56
2022/01/09 05:10:31;;;;;;;2.90;2.70;;;2.90;99.90;;;;;;5110996;28;20734;-54
2022/01/09 05:12:59;;;;;;;2.90;2.70;;;2.90;99.90;;;;;;5111164;28;20219;-57
2022/01/09 05:15:27;;;;;;;3.03;2.83;;;2.90;99.90;;;;;;5111019;28;20203;-55
2022/01/09 05:17:59;;;;;;;2.90;2.70;;;3.00;99.90;;;;;;5111349;28;20227;-55
2022/01/09 05:20:28;;;;;;;2.90;2.70;;;3.00;99.90;;;;;;5110893;28;20254;-56
2022/01/09 05:22:56;;;;;;;2.90;2.70;;;3.00;99.90;;;;;;5110834;28;20233;-55
2022/01/09 05:25:24;;;;;;;2.97;2.77;;;3.00;99.90;;;;;;5110991;28;20668;-55
2022/01/09 05:27:53;;;;;;;3.50;3.20;;;3.00;99.90;;;;;;5114664;28;20272;-55
2022/01/09 05:30:21;;;;;;;3.50;3.30;;;3.00;99.90;;;;;;5116061;28;20231;-57
2022/01/09 05:32:49;;;;;;;3.47;3.20;;;3.00;99.90;;;;;;5115520;28;20219;-55
2022/01/09 05:35:18;;;;;;;3.60;3.33;;;3.10;99.90;;;;;;5130429;27;20672;-56
2022/01/09 05:37:46;;;;;;;3.80;3.50;;;3.00;99.90;;;;;;5115471;28;20699;-56
2022/01/09 05:40:14;;;;;;;3.90;3.60;;;3.00;99.90;;;;;;5115250;28;20264;-55
2022/01/09 05:42:42;;;;;;;4.17;3.70;;;3.00;99.90;;;;;;5114229;28;20249;-56
2022/01/09 05:45:12;;;;;;;3.97;3.63;;;3.00;99.90;;;;;;5114277;28;20792;-56
2022/01/09 05:47:40;;;;;;;3.80;3.50;;;3.10;99.90;;;;;;5114120;28;20255;-55
2022/01/09 05:50:09;;;;;;;3.90;3.60;;;3.10;99.90;;;;;;5113277;28;20207;-55
2022/01/09 05:52:37;;;;;;;3.67;3.47;;;3.10;99.90;;;;;;5114404;28;20253;-55
2022/01/09 05:55:06;;;;;;;4.67;4.27;;;3.10;99.90;;;;;;5114060;28;20239;-56
2022/01/09 05:57:34;;;;;;;3.80;3.50;;;3.10;99.90;;;;;;5114394;28;20238;-56
2022/01/09 06:00:04;;;;;;;3.90;3.53;;;3.20;99.90;;;;;;5113930;28;20582;-57
2022/01/09 06:02:33;;;;;;;3.90;3.60;;;3.20;99.90;;;;;;5114193;28;20207;-56
2022/01/09 06:05:01;;;;;;;4.17;3.87;;;3.20;99.90;;;;;;5114025;28;20207;-56
2022/01/09 06:07:29;;;;;;;4.00;3.70;;;3.20;99.90;;;;;;5113887;28;20256;-56
2022/01/09 06:09:57;;;;;;;5.77;5.27;;;3.20;99.90;;;;;;5114278;28;20204;-56
2022/01/09 06:12:25;;;;;;;5.47;4.97;;;3.10;99.90;;;;;;5099047;28;20623;-56
2022/01/09 06:14:54;;;;;;;4.53;4.13;;;3.10;99.90;;;;;;5093565;28;20200;-55
2022/01/09 06:17:22;;;;;;;3.30;3.10;;;3.20;99.90;;;;;;5092347;28;20228;-55
2022/01/09 06:19:51;;;;;;;5.33;4.30;;;3.10;99.90;;;;;;5093716;28;20283;-55
2022/01/09 06:22:21;;;;;;;5.77;5.27;;;3.10;99.90;;;;;;5093307;28;20212;-54
2022/01/09 06:24:50;;;;;;;3.40;3.20;;;3.10;99.90;;;;;;5092067;28;20258;-57
2022/01/09 06:27:19;;;;;;;3.80;3.50;;;3.10;99.90;;;;;;5116589;27;20229;-55
2022/01/09 06:29:47;;;;;;;3.70;3.40;;;3.20;99.90;;;;;;5121155;27;20199;-54
2022/01/09 06:32:15;;;;;;;4.23;3.93;;;3.20;99.90;;;;;;5122511;27;20588;-54
2022/01/09 06:34:43;;;;;;;5.33;4.93;;;3.20;99.90;;;;;;5121437;27;20203;-54
2022/01/09 06:37:14;;;;;;;4.00;3.70;;;3.20;99.90;;;;;;5098246;28;20213;-54
2022/01/09 06:39:43;;;;;;;5.33;4.83;;;3.20;99.90;;;;;;5113207;28;20619;-56
2022/01/09 06:42:12;;;;;;;4.17;3.77;;;3.20;99.90;;;;;;5112858;28;20209;-55
2022/01/09 06:44:40;;;;;;;3.87;3.43;;;3.20;99.90;;;;;;5117156;27;20211;-55
2022/01/09 06:47:09;;;;;;;4.33;3.93;;;3.20;99.90;;;;;;5132556;27;20283;-56
2022/01/09 06:49:37;;;;;;;5.07;4.67;;;3.10;99.90;;;;;;5117840;27;20791;-55
2022/01/09 06:52:06;;;;;;;3.50;3.30;;;3.10;99.90;;;;;;5126394;27;20867;-55
2022/01/09 06:54:36;;;;;;;4.00;3.70;;;3.10;99.90;;;;;;5128489;27;20644;-53
2022/01/09 06:57:04;;;;;;;4.10;3.80;;;3.10;99.90;;;;;;5132291;27;20281;-54
2022/01/09 06:59:33;;;;;;;3.67;3.37;;;3.10;99.90;;;;;;5121754;27;20352;-54
2022/01/09 07:02:01;;;;;;;3.10;2.90;;;3.10;99.90;;;;;;5129728;27;20250;-55
2022/01/09 07:04:29;;;;;;;3.53;3.23;;;3.20;99.90;;;;;;5124847;27;20242;-55
2022/01/09 07:06:57;;;;;;;3.00;2.57;;;3.20;99.90;;;;;;5129051;27;20242;-56
2022/01/09 07:09:25;;;;;;;2.80;2.60;;;3.20;99.90;;;;;;5126169;27;20223;-55
2022/01/09 07:11:54;;;;;;;3.00;2.80;;;3.20;99.90;;;;;;5124573;27;20250;-55
2022/01/09 07:14:23;;;;;;;3.37;3.17;;;3.30;99.90;;;;;;5131959;27;20283;-56
2022/01/09 07:16:51;;;;;;;4.00;3.40;;;3.20;99.90;;;;;;5132089;27;20206;-54
2022/01/09 07:19:19;;;;;;;2.90;2.70;;;3.30;99.90;;;;;;5131291;27;20268;-55
2022/01/09 07:21:47;;;;;;;2.80;2.60;;;3.30;99.90;;;;;;5132330;27;20274;-55
2022/01/09 07:24:15;;;;;;;2.73;2.40;;;3.30;99.90;;;;;;5123248;27;20637;-55
2022/01/09 07:26:43;;;;;;;3.73;2.90;;;3.30;99.90;;;;;;5122716;27;20200;-54
2022/01/09 07:29:13;;;;;;;2.80;2.60;;;3.20;99.90;;;;;;5131607;27;20238;-55
2022/01/09 07:31:41;;;;;;;3.30;3.00;;;3.20;99.90;;;;;;5133138;27;20236;-54
2022/01/09 07:34:09;;;;;;;2.60;2.40;;;3.20;99.90;;;;;;5115533;27;20252;-55
2022/01/09 07:36:37;;;;;;;2.50;2.30;;;3.30;99.90;;;;;;5115507;27;20201;-55
2022/01/09 07:39:05;;;;;;;1.63;1.53;;;3.30;99.90;;;;;;5091328;28;20293;-55
2022/01/09 07:41:33;;;;;;;1.77;1.67;;;3.30;99.90;;;;;;5115824;27;20623;-57
2022/01/09 07:44:01;;;;;;;1.60;1.50;;;3.40;99.90;;;;;;5111952;28;20625;-56
2022/01/09 07:46:31;;;;;;;2.20;1.53;;;3.40;99.90;;;;;;5112411;28;20270;-56
2022/01/09 07:48:59;;;;;;;1.33;1.23;;;3.50;99.90;;;;;;5111070;28;20217;-55
2022/01/09 07:51:27;;;;;;;1.10;1.00;;;3.50;99.90;;;;;;5111714;28;20231;-55
2022/01/09 07:54:15;;;;;;;1.43;1.10;;;3.50;99.90;;;;;;5116461;27;20275;-55
2022/01/09 07:56:43;;;;;;;1.30;1.20;;;3.50;99.90;;;;;;5114460;27;20231;-55
2022/01/09 07:59:11;;;;;;;1.50;1.40;;;3.50;99.90;;;;;;5111371;28;20752;-55
2022/01/09 08:01:42;;;;;;;2.43;1.57;;;3.60;99.90;;;;;;5111705;28;20203;-56
2022/01/09 08:04:10;;;;;;;3.47;2.10;;;3.70;99.90;;;;;;5111531;28;20249;-54
2022/01/09 08:06:39;;;;;;;1.30;1.20;;;3.70;99.90;;;;;;5111532;28;20287;-56
2022/01/09 08:09:07;;;;;;;1.30;1.20;;;3.70;99.90;;;;;;5119208;27;20224;-55
2022/01/09 08:11:35;;;;;;;3.77;3.07;;;3.70;99.90;;;;;;5091490;28;20265;-55
2022/01/09 08:14:03;;;;;;;2.97;2.67;;;3.80;99.90;;;;;;5090950;28;20614;-55
2022/01/09 08:16:32;;;;;;;1.83;1.73;;;3.80;99.90;;;;;;5093231;28;20240;-55
2022/01/09 08:19:01;;;;;;;2.73;2.47;;;3.80;99.90;;;;;;5113063;27;20223;-56
2022/01/09 08:21:29;;;;;;;2.77;2.47;;;3.80;99.90;;;;;;5123181;27;20236;-54
2022/01/09 08:23:58;;;;;;;7.10;6.40;;;3.80;99.90;;;;;;5125883;27;20207;-54
2022/01/09 08:26:26;;;;;;;3.83;3.50;;;3.80;99.90;;;;;;5123271;27;20229;-55
2022/01/09 08:28:54;;;;;;;4.70;3.03;;;3.80;99.90;;;;;;5123989;27;20267;-55
2022/01/09 08:31:23;;;;;;;2.80;2.60;;;3.70;99.90;;;;;;5113956;28;20759;-54
2022/01/09 08:33:51;;;;;;;1.93;1.40;;;3.80;99.90;;;;;;5105876;28;20205;-56
2022/01/09 08:36:21;;;;;;;2.37;2.17;;;3.80;99.90;;;;;;5112526;28;20195;-55
2022/01/09 08:38:49;;;;;;;2.63;2.37;;;3.80;99.90;;;;;;5104335;28;20283;-55
2022/01/09 08:41:17;;;;;;;1.40;1.30;;;3.80;99.90;;;;;;5106670;28;20248;-55
2022/01/09 08:43:45;;;;;;;1.60;1.50;;;3.90;99.90;;;;;;5106945;28;20205;-53
2022/01/09 08:46:14;;;;;;;2.17;1.63;;;3.90;99.90;;;;;;5095105;28;20683;-55
2022/01/09 08:48:43;;;;;;;3.27;1.80;;;3.90;99.90;;;;;;5108303;28;20234;-55
2022/01/09 08:51:11;;;;;;;1.80;1.70;;;3.90;99.90;;;;;;5113894;28;20656;-56
2022/01/09 08:53:41;;;;;;;1.80;1.70;;;3.90;99.90;;;;;;5096076;28;20203;-54
2022/01/09 08:56:10;;;;;;;2.17;1.50;;;4.00;99.90;;;;;;5090346;28;20218;-56
2022/01/09 08:58:38;;;;;;;3.17;1.77;;;3.90;99.90;;;;;;5096466;28;20225;-55
2022/01/09 09:01:06;;;;;;;2.07;1.83;;;4.00;99.90;;;;;;5108424;28;20554;-55
2022/01/09 09:03:36;;;;;;;2.10;2.00;;;4.00;99.90;;;;;;5106977;28;20691;-55
2022/01/09 09:06:05;;;;;;;5.57;2.67;;;4.00;99.90;;;;;;5114488;27;20235;-55
2022/01/09 09:08:33;;;;;;;4.93;2.53;;;4.10;99.90;;;;;;5104845;28;20609;-54
2022/01/09 09:11:02;;;;;;;4.03;2.33;;;4.10;99.90;;;;;;5099319;28;20204;-55
2022/01/09 09:13:30;;;;;;;4.33;2.43;;;4.10;99.90;;;;;;5100644;28;20217;-55
2022/01/09 09:15:59;;;;;;;3.63;2.77;;;4.10;99.90;;;;;;5112161;27;20628;-55
2022/01/09 09:18:27;;;;;;;5.87;3.60;;;4.10;99.90;;;;;;5106009;27;20280;-55
2022/01/09 09:20:55;;;;;;;5.43;3.53;;;4.10;99.90;;;;;;5116708;27;20264;-54
2022/01/09 09:23:24;;;;;;;8.73;6.40;;;4.10;99.90;;;;;;5114380;28;20215;-55
2022/01/09 09:25:52;;;;;;;6.77;4.00;;;4.10;99.90;;;;;;5114992;27;20257;-55
2022/01/09 09:28:22;;;;;;;5.10;4.30;;;4.20;99.90;;;;;;5113955;28;20259;-55
2022/01/09 09:30:50;;;;;;;9.43;4.90;;;4.20;99.90;;;;;;5114246;28;20204;-55
2022/01/09 09:33:18;;;;;;;7.97;4.70;;;4.20;99.90;;;;;;5114029;27;20238;-55
2022/01/09 09:35:46;;;;;;;7.97;5.33;;;4.30;99.90;;;;;;5106511;27;20211;-55
2022/01/09 09:38:15;;;;;;;8.53;4.53;;;4.30;99.90;;;;;;5113861;28;20893;-53
2022/01/09 09:40:43;;;;;;;11.23;5.57;;;4.30;99.90;;;;;;5114452;28;20276;-56
2022/01/09 09:43:11;;;;;;;13.83;5.53;;;4.30;99.90;;;;;;5121115;27;20207;-53
2022/01/09 09:45:40;;;;;;;15.47;7.30;;;4.30;99.90;;;;;;5114272;28;20204;-56
2022/01/09 09:48:09;;;;;;;15.00;7.60;;;4.30;99.90;;;;;;5106691;27;20251;-55
2022/01/09 09:50:38;;;;;;;10.13;6.20;;;4.40;99.90;;;;;;5093818;28;20297;-55
2022/01/09 09:53:06;;;;;;;21.37;14.27;;;4.40;99.90;;;;;;5102403;28;20204;-55
2022/01/09 09:55:34;;;;;;;13.30;5.67;;;4.40;99.90;;;;;;5113754;28;20285;-54
2022/01/09 09:58:03;;;;;;;13.67;6.67;;;4.40;99.90;;;;;;5106825;27;20251;-55
2022/01/09 10:00:32;;;;;;;12.60;6.40;;;4.40;99.90;;;;;;5106420;28;20217;-55
2022/01/09 10:03:04;;;;;;;9.27;5.20;;;4.50;99.90;;;;;;5114177;28;20291;-54
2022/01/09 10:05:35;;;;;;;12.47;8.07;;;4.50;99.90;;;;;;5113287;28;20209;-55
2022/01/09 10:08:08;;;;;;;10.50;5.83;;;4.40;99.90;;;;;;5105974;28;20225;-56
2022/01/09 10:10:38;;;;;;;12.57;6.47;;;4.40;99.90;;;;;;5109313;27;20249;-55
2022/01/09 10:13:09;;;;;;;15.40;8.07;;;4.40;99.90;;;;;;5109040;28;20257;-54
2022/01/09 10:15:48;;;;;;;12.50;5.00;;;4.50;99.90;;;;;;5111797;28;20689;-55
2022/01/09 10:18:38;;;;;;;15.93;7.17;;;4.50;99.90;;;;;;5112864;28;20255;-55
2022/01/09 10:21:08;;;;;;;17.67;6.70;;;4.50;99.90;;;;;;5112487;27;20253;-56
2022/01/09 10:23:36;;;;;;;20.77;6.97;;;4.40;99.90;;;;;;5109916;28;20254;-56
2022/01/09 10:26:11;;;;;;;13.17;6.07;;;4.40;99.90;;;;;;5110616;28;20211;-55
2022/01/09 10:28:40;;;;;;;13.87;6.23;;;4.40;99.90;;;;;;5101787;28;20285;-55
2022/01/09 10:31:16;;;;;;;18.80;7.53;;;4.50;99.90;;;;;;5102967;28;20742;-54
2022/01/09 10:34:02;;;;;;;14.17;6.20;;;4.40;99.90;;;;;;5110318;28;20575;-54
2022/01/09 10:36:39;;;;;;;18.13;6.60;;;4.40;99.90;;;;;;5110336;28;20234;-55
2022/01/09 10:39:11;;;;;;;14.43;8.20;;;4.40;99.90;;;;;;5108809;28;20268;-55
2022/01/09 10:41:50;;;;;;;20.83;6.73;;;4.40;99.90;;;;;;5111920;28;20681;-55
2022/01/09 10:44:20;;;;;;;22.13;6.77;;;4.40;99.90;;;;;;5110180;28;20216;-54
2022/01/09 10:46:56;;;;;;;15.03;5.40;;;4.40;99.90;;;;;;5108995;28;20207;-56
2022/01/09 10:49:35;;;;;;;14.80;6.00;;;4.40;99.90;;;;;;5113071;27;20228;-55
2022/01/09 10:52:14;;;;;;;19.20;11.00;;;4.30;99.90;;;;;;5112183;28;20202;-57
2022/01/09 10:54:46;;;;;;;14.80;6.17;;;4.30;99.90;;;;;;5112688;28;20265;-55
2022/01/09 10:57:17;;;;;;;19.97;8.93;;;4.40;99.90;;;;;;5112067;28;20214;-56
2022/01/09 10:59:45;;;;;;;12.27;5.23;;;4.40;99.90;;;;;;5109069;28;20227;-54
2022/01/09 11:02:13;;;;;;;12.30;5.47;;;4.40;99.90;;;;;;5112371;28;20210;-55
2022/01/09 11:04:45;;;;;;;19.67;6.60;;;4.40;99.90;;;;;;5111949;28;20351;-55
2022/01/09 11:07:14;;;;;;;18.57;8.37;;;4.40;99.90;;;;;;5105683;28;20236;-54
2022/01/09 11:09:48;;;;;;;14.10;5.63;;;4.40;99.90;;;;;;5109070;28;20480;-55
2022/01/09 11:12:20;;;;;;;10.63;5.00;;;4.70;99.90;;;;;;5109424;28;20209;-56
2022/01/09 11:14:51;;;;;;;14.37;5.20;;;4.70;99.90;;;;;;5111045;28;20760;-56
2022/01/09 11:17:22;;;;;;;13.43;5.07;;;4.70;99.90;;;;;;5112095;28;20306;-54
2022/01/09 11:19:51;;;;;;;15.20;5.30;;;4.70;99.90;;;;;;5111743;28;20235;-56
2022/01/09 11:22:21;;;;;;;12.87;5.73;;;4.70;99.90;;;;;;5111241;28;20369;-56
2022/01/09 11:25:07;;;;;;;16.73;6.20;;;4.80;99.90;;;;;;5108034;28;20576;-56
2022/01/09 11:27:50;;;;;;;15.20;7.00;;;4.90;99.90;;;;;;5113246;27;20647;-55
2022/01/09 11:30:26;;;;;;;14.60;6.53;;;5.00;99.90;;;;;;5091735;28;20630;-54
2022/01/09 11:33:10;;;;;;;14.93;6.00;;;5.00;99.90;;;;;;5091644;28;20248;-55
2022/01/09 11:35:49;;;;;;;15.43;8.17;;;5.10;99.90;;;;;;5106973;27;20670;-55
2022/01/09 11:38:26;;;;;;;12.60;7.17;;;5.10;99.90;;;;;;5103991;28;20230;-55
2022/01/09 11:40:54;;;;;;;16.87;6.63;;;5.20;99.90;;;;;;5095491;27;20226;-55
2022/01/09 11:43:22;;;;;;;14.43;6.47;;;5.20;99.90;;;;;;5112546;27;20662;-56
2022/01/09 11:45:58;;;;;;;10.20;5.13;;;5.20;99.90;;;;;;5111634;28;20199;-56
2022/01/09 11:48:43;;;;;;;12.33;4.90;;;5.30;99.90;;;;;;5104379;28;20229;-55
2022/01/09 11:51:15;;;;;;;12.27;5.20;;;5.30;99.90;;;;;;5111568;28;20252;-55
2022/01/09 11:54:01;;;;;;;14.77;5.17;;;5.30;99.90;;;;;;5101624;27;20208;-56
2022/01/09 11:56:52;;;;;;;8.63;4.37;;;5.30;99.90;;;;;;5120762;27;20272;-55
2022/01/09 11:59:51;;;;;;;9.50;4.63;;;5.30;99.90;;;;;;5122146;27;20210;-56
2022/01/09 12:02:37;;;;;;;12.13;4.43;;;5.40;99.90;;;;;;5122714;27;20676;-55
2022/01/09 12:05:10;;;;;;;9.40;4.37;;;5.30;99.90;;;;;;5124264;27;20809;-56
2022/01/09 12:08:09;;;;;;;13.17;7.00;;;5.20;99.90;;;;;;5121948;27;20224;-55
2022/01/09 12:10:41;;;;;;;15.37;6.67;;;5.20;99.90;;;;;;5114874;27;20699;-55
2022/01/09 12:13:43;;;;;;;17.87;9.17;;;5.10;99.90;;;;;;5120260;27;20266;-56
2022/01/09 12:16:44;;;;;;;8.90;4.90;;;5.10;99.90;;;;;;5118690;27;20232;-55
2022/01/09 12:19:12;;;;;;;16.10;5.40;;;5.10;99.90;;;;;;5120911;27;20311;-55
2022/01/09 12:21:50;;;;;;;12.60;5.27;;;5.10;99.90;;;;;;5123342;27;20359;-55
2022/01/09 12:24:41;;;;;;;10.60;5.43;;;5.10;99.90;;;;;;5118505;27;20263;-55
2022/01/09 12:27:43;;;;;;;11.87;6.97;;;5.10;99.90;;;;;;5121147;27;20225;-55
2022/01/09 12:30:32;;;;;;;11.53;6.10;;;5.00;99.90;;;;;;5118031;27;20206;-56
2022/01/09 12:33:01;;;;;;;15.67;8.47;;;5.00;99.90;;;;;;5106335;28;20626;-56
2022/01/09 12:35:29;;;;;;;12.03;6.57;;;5.00;99.90;;;;;;5108286;28;20298;-55
2022/01/09 12:37:59;;;;;;;10.60;5.83;;;5.00;99.90;;;;;;5105888;28;20625;-56
2022/01/09 12:40:30;;;;;;;11.63;6.53;;;5.00;99.90;;;;;;5090588;28;20221;-56
2022/01/09 12:43:00;;;;;;;10.37;5.27;;;5.00;99.90;;;;;;5102860;28;20217;-56
2022/01/09 12:45:31;;;;;;;11.47;6.27;;;5.00;99.90;;;;;;5110142;28;20645;-55
2022/01/09 12:48:01;;;;;;;10.53;5.90;;;5.00;99.90;;;;;;5111164;28;20228;-56
2022/01/09 12:50:31;;;;;;;10.20;6.50;;;5.00;99.90;;;;;;5110355;28;20205;-57
2022/01/09 12:53:14;;;;;;;10.27;6.50;;;5.00;99.90;;;;;;5110982;28;20244;-56
2022/01/09 12:56:00;;;;;;;8.67;5.20;;;5.00;99.90;;;;;;5109573;28;20635;-56
2022/01/09 12:58:30;;;;;;;13.10;5.80;;;5.10;99.90;;;;;;5110001;28;20229;-55
2022/01/09 13:00:59;;;;;;;8.67;5.60;;;5.10;99.90;;;;;;5098532;28;20281;-55
2022/01/09 13:03:30;;;;;;;9.93;5.73;;;5.10;99.90;;;;;;5107408;28;20868;-55
2022/01/09 13:06:01;;;;;;;8.13;5.63;;;5.10;99.90;;;;;;5108957;28;20206;-56
2022/01/09 13:08:29;;;;;;;7.40;4.77;;;5.20;99.90;;;;;;5090553;28;20723;-55
2022/01/09 13:11:01;;;;;;;7.80;3.93;;;5.10;99.90;;;;;;5105697;28;20199;-55
2022/01/09 13:13:30;;;;;;;6.50;4.80;;;5.10;99.90;;;;;;5106745;28;20219;-56